sensor_id;sensor_type;location;lat;lon;timestamp;temperature;humidity
43808;DHT22;29438;50.664;10.098;2023-07-28T00:00:32;15.70;93.80
43808;DHT22;29438;50.664;10.098;2023-07-28T00:02:58;15.60;93.80
43808;DHT22;29438;50.664;10.098;2023-07-28T00:05:24;15.70;93.80
43808;DHT22;29438;50.664;10.098;2023-07-28T00:07:49;15.70;93.80
43808;DHT22;29438;50.664;10.098;2023-07-28T00:10:15;15.60;93.80
43808;DHT22;29438;50.664;10.098;2023-07-28T00:12:40;15.60;93.90
43808;DHT22;29438;50.664;10.098;2023-07-28T00:15:06;15.70;93.90
43808;DHT22;29438;50.664;10.098;2023-07-28T00:17:32;15.60;93.90
43808;DHT22;29438;50.664;10.098;2023-07-28T00:19:57;15.70;94.00
43808;DHT22;29438;50.664;10.098;2023-07-28T00:22:23;15.70;94.00
43808;DHT22;29438;50.664;10.098;2023-07-28T00:24:48;15.70;94.00
43808;DHT22;29438;50.664;10.098;2023-07-28T00:27:14;15.70;93.90
43808;DHT22;29438;50.664;10.098;2023-07-28T00:29:41;15.70;93.80
43808;DHT22;29438;50.664;10.098;2023-07-28T00:32:07;15.70;93.80
43808;DHT22;29438;50.664;10.098;2023-07-28T00:34:32;15.70;93.70
43808;DHT22;29438;50.664;10.098;2023-07-28T00:36:58;15.70;93.80
43808;DHT22;29438;50.664;10.098;2023-07-28T00:39:23;15.70;93.80
43808;DHT22;29438;50.664;10.098;2023-07-28T00:41:49;15.70;93.90
43808;DHT22;29438;50.664;10.098;2023-07-28T00:44:14;15.60;93.90
43808;DHT22;29438;50.664;10.098;2023-07-28T00:46:42;15.60;93.90
43808;DHT22;29438;50.664;10.098;2023-07-28T00:49:08;15.70;93.90
43808;DHT22;29438;50.664;10.098;2023-07-28T00:51:35;15.60;93.90
43808;DHT22;29438;50.664;10.098;2023-07-28T00:54:02;15.60;94.00
43808;DHT22;29438;50.664;10.098;2023-07-28T00:56:29;15.50;93.90
43808;DHT22;29438;50.664;10.098;2023-07-28T00:58:55;15.50;93.90
43808;DHT22;29438;50.664;10.098;2023-07-28T01:01:21;15.60;93.90
43808;DHT22;29438;50.664;10.098;2023-07-28T01:03:47;15.50;93.90
43808;DHT22;29438;50.664;10.098;2023-07-28T01:08:59;15.50;93.90
43808;DHT22;29438;50.664;10.098;2023-07-28T01:11:29;15.50;93.90
43808;DHT22;29438;50.664;10.098;2023-07-28T01:13:54;15.50;93.80
43808;DHT22;29438;50.664;10.098;2023-07-28T01:16:20;15.50;93.90
43808;DHT22;29438;50.664;10.098;2023-07-28T01:18:46;15.50;93.80
43808;DHT22;29438;50.664;10.098;2023-07-28T01:21:19;15.40;93.80
43808;DHT22;29438;50.664;10.098;2023-07-28T01:26:36;15.40;93.80
43808;DHT22;29438;50.664;10.098;2023-07-28T01:29:03;15.40;93.80
43808;DHT22;29438;50.664;10.098;2023-07-28T01:31:29;15.30;93.90
43808;DHT22;29438;50.664;10.098;2023-07-28T01:33:55;15.40;93.90
43808;DHT22;29438;50.664;10.098;2023-07-28T01:36:21;15.30;93.90
43808;DHT22;29438;50.664;10.098;2023-07-28T01:38:46;15.30;94.00
43808;DHT22;29438;50.664;10.098;2023-07-28T01:41:12;15.20;94.00
43808;DHT22;29438;50.664;10.098;2023-07-28T01:43:37;15.20;94.00
43808;DHT22;29438;50.664;10.098;2023-07-28T01:46:03;15.20;94.00
43808;DHT22;29438;50.664;10.098;2023-07-28T01:48:28;15.20;94.00
43808;DHT22;29438;50.664;10.098;2023-07-28T01:50:54;15.20;94.10
43808;DHT22;29438;50.664;10.098;2023-07-28T01:53:20;15.10;94.00
43808;DHT22;29438;50.664;10.098;2023-07-28T01:55:45;15.10;94.10
43808;DHT22;29438;50.664;10.098;2023-07-28T01:58:11;15.10;94.10
43808;DHT22;29438;50.664;10.098;2023-07-28T02:00:36;15.10;94.20
43808;DHT22;29438;50.664;10.098;2023-07-28T02:03:02;15.10;94.30
43808;DHT22;29438;50.664;10.098;2023-07-28T02:05:29;15.10;94.30
43808;DHT22;29438;50.664;10.098;2023-07-28T02:07:55;15.10;94.30
43808;DHT22;29438;50.664;10.098;2023-07-28T02:10:26;15.10;94.30
43808;DHT22;29438;50.664;10.098;2023-07-28T02:12:52;15.10;94.30
43808;DHT22;29438;50.664;10.098;2023-07-28T02:15:18;15.10;94.30
43808;DHT22;29438;50.664;10.098;2023-07-28T02:17:43;15.10;94.30
43808;DHT22;29438;50.664;10.098;2023-07-28T02:20:09;15.10;94.30
43808;DHT22;29438;50.664;10.098;2023-07-28T02:22:41;15.10;94.20
43808;DHT22;29438;50.664;10.098;2023-07-28T02:25:07;15.10;94.20
43808;DHT22;29438;50.664;10.098;2023-07-28T02:27:33;15.10;94.20
43808;DHT22;29438;50.664;10.098;2023-07-28T02:29:58;15.10;94.20
43808;DHT22;29438;50.664;10.098;2023-07-28T02:32:24;15.10;94.30
43808;DHT22;29438;50.664;10.098;2023-07-28T02:34:50;15.20;94.30
43808;DHT22;29438;50.664;10.098;2023-07-28T02:37:15;15.20;94.30
43808;DHT22;29438;50.664;10.098;2023-07-28T02:39:41;15.20;94.40
43808;DHT22;29438;50.664;10.098;2023-07-28T02:42:07;15.10;94.40
43808;DHT22;29438;50.664;10.098;2023-07-28T02:44:32;15.20;94.40
43808;DHT22;29438;50.664;10.098;2023-07-28T02:46:58;15.20;94.50
43808;DHT22;29438;50.664;10.098;2023-07-28T02:49:24;15.20;94.50
43808;DHT22;29438;50.664;10.098;2023-07-28T02:51:49;15.20;94.50
43808;DHT22;29438;50.664;10.098;2023-07-28T02:54:15;15.20;94.50
43808;DHT22;29438;50.664;10.098;2023-07-28T02:56:40;15.20;94.50
43808;DHT22;29438;50.664;10.098;2023-07-28T02:59:06;15.20;94.50
43808;DHT22;29438;50.664;10.098;2023-07-28T03:01:31;15.20;94.50
43808;DHT22;29438;50.664;10.098;2023-07-28T03:04:03;15.20;94.50
43808;DHT22;29438;50.664;10.098;2023-07-28T03:06:29;15.20;94.60
43808;DHT22;29438;50.664;10.098;2023-07-28T03:08:55;15.20;94.50
43808;DHT22;29438;50.664;10.098;2023-07-28T03:11:20;15.20;94.50
43808;DHT22;29438;50.664;10.098;2023-07-28T03:13:46;15.20;94.50
43808;DHT22;29438;50.664;10.098;2023-07-28T03:16:12;15.20;94.50
43808;DHT22;29438;50.664;10.098;2023-07-28T03:18:37;15.20;94.50
43808;DHT22;29438;50.664;10.098;2023-07-28T03:21:03;15.20;94.50
43808;DHT22;29438;50.664;10.098;2023-07-28T03:23:28;15.20;94.50
43808;DHT22;29438;50.664;10.098;2023-07-28T03:25:54;15.20;94.50
43808;DHT22;29438;50.664;10.098;2023-07-28T03:28:19;15.20;94.50
43808;DHT22;29438;50.664;10.098;2023-07-28T03:30:46;15.20;94.50
43808;DHT22;29438;50.664;10.098;2023-07-28T03:33:12;15.20;94.50
43808;DHT22;29438;50.664;10.098;2023-07-28T03:35:37;15.20;94.50
43808;DHT22;29438;50.664;10.098;2023-07-28T03:38:03;15.20;94.50
43808;DHT22;29438;50.664;10.098;2023-07-28T03:40:29;15.30;94.50
43808;DHT22;29438;50.664;10.098;2023-07-28T03:42:54;15.30;94.40
43808;DHT22;29438;50.664;10.098;2023-07-28T03:45:20;15.30;94.40
43808;DHT22;29438;50.664;10.098;2023-07-28T03:47:46;15.30;94.40
43808;DHT22;29438;50.664;10.098;2023-07-28T03:50:12;15.40;94.30
43808;DHT22;29438;50.664;10.098;2023-07-28T03:52:37;15.40;94.20
43808;DHT22;29438;50.664;10.098;2023-07-28T03:55:03;15.40;94.20
43808;DHT22;29438;50.664;10.098;2023-07-28T03:57:29;15.40;94.20
43808;DHT22;29438;50.664;10.098;2023-07-28T03:59:54;15.40;94.10
43808;DHT22;29438;50.664;10.098;2023-07-28T04:02:20;15.40;94.20
43808;DHT22;29438;50.664;10.098;2023-07-28T04:04:46;15.40;94.20
43808;DHT22;29438;50.664;10.098;2023-07-28T04:07:11;15.40;94.10
43808;DHT22;29438;50.664;10.098;2023-07-28T04:09:37;15.50;94.10
43808;DHT22;29438;50.664;10.098;2023-07-28T04:12:02;15.50;94.00
43808;DHT22;29438;50.664;10.098;2023-07-28T04:14:28;15.50;94.00
43808;DHT22;29438;50.664;10.098;2023-07-28T04:16:53;15.50;94.00
43808;DHT22;29438;50.664;10.098;2023-07-28T04:19:19;15.50;94.00
43808;DHT22;29438;50.664;10.098;2023-07-28T04:21:44;15.60;94.00
43808;DHT22;29438;50.664;10.098;2023-07-28T04:24:11;15.50;94.00
43808;DHT22;29438;50.664;10.098;2023-07-28T04:26:37;15.60;94.00
43808;DHT22;29438;50.664;10.098;2023-07-28T04:29:02;15.60;93.90
43808;DHT22;29438;50.664;10.098;2023-07-28T04:31:28;15.60;94.00
43808;DHT22;29438;50.664;10.098;2023-07-28T04:33:54;15.60;93.90
43808;DHT22;29438;50.664;10.098;2023-07-28T04:36:19;15.70;93.80
43808;DHT22;29438;50.664;10.098;2023-07-28T04:38:45;15.70;93.80
43808;DHT22;29438;50.664;10.098;2023-07-28T04:41:10;15.70;93.70
43808;DHT22;29438;50.664;10.098;2023-07-28T04:43:36;15.80;93.70
43808;DHT22;29438;50.664;10.098;2023-07-28T04:46:01;15.80;93.50
43808;DHT22;29438;50.664;10.098;2023-07-28T04:48:27;15.90;93.50
43808;DHT22;29438;50.664;10.098;2023-07-28T04:50:53;15.90;93.20
43808;DHT22;29438;50.664;10.098;2023-07-28T04:53:19;15.90;93.10
43808;DHT22;29438;50.664;10.098;2023-07-28T04:55:45;15.90;92.90
43808;DHT22;29438;50.664;10.098;2023-07-28T04:58:10;15.90;92.80
43808;DHT22;29438;50.664;10.098;2023-07-28T05:00:36;15.90;93.00
43808;DHT22;29438;50.664;10.098;2023-07-28T05:03:01;15.90;93.00
43808;DHT22;29438;50.664;10.098;2023-07-28T05:05:29;16.00;93.00
43808;DHT22;29438;50.664;10.098;2023-07-28T05:07:54;16.10;93.00
43808;DHT22;29438;50.664;10.098;2023-07-28T05:10:20;16.10;92.70
43808;DHT22;29438;50.664;10.098;2023-07-28T05:12:45;16.20;92.60
43808;DHT22;29438;50.664;10.098;2023-07-28T05:15:13;16.10;92.60
43808;DHT22;29438;50.664;10.098;2023-07-28T05:17:39;16.10;92.50
43808;DHT22;29438;50.664;10.098;2023-07-28T05:20:05;16.20;92.40
43808;DHT22;29438;50.664;10.098;2023-07-28T05:22:30;16.40;92.20
43808;DHT22;29438;50.664;10.098;2023-07-28T05:24:56;17.40;90.30
43808;DHT22;29438;50.664;10.098;2023-07-28T05:27:22;18.50;85.80
43808;DHT22;29438;50.664;10.098;2023-07-28T05:29:47;18.20;86.60
43808;DHT22;29438;50.664;10.098;2023-07-28T05:32:13;17.80;87.60
43808;DHT22;29438;50.664;10.098;2023-07-28T05:34:42;17.70;88.20
43808;DHT22;29438;50.664;10.098;2023-07-28T05:37:08;17.40;88.80
43808;DHT22;29438;50.664;10.098;2023-07-28T05:39:33;17.60;88.70
43808;DHT22;29438;50.664;10.098;2023-07-28T05:41:59;18.60;86.60
43808;DHT22;29438;50.664;10.098;2023-07-28T05:44:24;18.60;85.80
43808;DHT22;29438;50.664;10.098;2023-07-28T05:46:50;17.90;87.00
43808;DHT22;29438;50.664;10.098;2023-07-28T05:49:15;17.70;87.90
43808;DHT22;29438;50.664;10.098;2023-07-28T05:51:41;17.90;87.60
43808;DHT22;29438;50.664;10.098;2023-07-28T05:54:06;18.00;87.40
43808;DHT22;29438;50.664;10.098;2023-07-28T05:56:32;18.20;87.70
43808;DHT22;29438;50.664;10.098;2023-07-28T05:58:58;19.00;84.90
43808;DHT22;29438;50.664;10.098;2023-07-28T06:01:23;19.10;84.30
43808;DHT22;29438;50.664;10.098;2023-07-28T06:03:50;19.10;84.30
43808;DHT22;29438;50.664;10.098;2023-07-28T06:06:17;18.80;84.20
43808;DHT22;29438;50.664;10.098;2023-07-28T06:08:44;18.50;86.00
43808;DHT22;29438;50.664;10.098;2023-07-28T06:11:09;18.70;85.60
43808;DHT22;29438;50.664;10.098;2023-07-28T06:13:35;19.70;84.00
43808;DHT22;29438;50.664;10.098;2023-07-28T06:16:00;21.70;76.90
43808;DHT22;29438;50.664;10.098;2023-07-28T06:18:26;20.70;78.20
43808;DHT22;29438;50.664;10.098;2023-07-28T06:20:51;20.60;79.20
43808;DHT22;29438;50.664;10.098;2023-07-28T06:23:17;20.80;78.40
43808;DHT22;29438;50.664;10.098;2023-07-28T06:25:42;21.90;75.60
43808;DHT22;29438;50.664;10.098;2023-07-28T06:28:11;21.90;75.10
43808;DHT22;29438;50.664;10.098;2023-07-28T06:30:37;20.70;77.40
43808;DHT22;29438;50.664;10.098;2023-07-28T06:33:05;20.80;78.00
43808;DHT22;29438;50.664;10.098;2023-07-28T06:35:31;21.80;76.60
43808;DHT22;29438;50.664;10.098;2023-07-28T06:37:57;22.70;71.20
43808;DHT22;29438;50.664;10.098;2023-07-28T06:40:23;22.40;72.40
43808;DHT22;29438;50.664;10.098;2023-07-28T06:42:48;23.10;71.30
43808;DHT22;29438;50.664;10.098;2023-07-28T06:45:14;23.80;67.70
43808;DHT22;29438;50.664;10.098;2023-07-28T06:47:39;25.20;64.40
43808;DHT22;29438;50.664;10.098;2023-07-28T06:50:05;26.80;60.20
43808;DHT22;29438;50.664;10.098;2023-07-28T06:52:31;26.80;57.70
43808;DHT22;29438;50.664;10.098;2023-07-28T06:54:57;25.00;61.60
43808;DHT22;29438;50.664;10.098;2023-07-28T06:57:22;24.00;64.90
43808;DHT22;29438;50.664;10.098;2023-07-28T06:59:50;23.20;69.20
43808;DHT22;29438;50.664;10.098;2023-07-28T07:02:16;22.40;71.50
43808;DHT22;29438;50.664;10.098;2023-07-28T07:04:42;22.30;71.80
43808;DHT22;29438;50.664;10.098;2023-07-28T07:07:07;22.90;71.00
43808;DHT22;29438;50.664;10.098;2023-07-28T07:09:33;24.00;68.50
43808;DHT22;29438;50.664;10.098;2023-07-28T07:11:58;25.10;64.50
43808;DHT22;29438;50.664;10.098;2023-07-28T07:14:24;24.80;64.20
43808;DHT22;29438;50.664;10.098;2023-07-28T07:16:49;24.90;64.30
43808;DHT22;29438;50.664;10.098;2023-07-28T07:19:15;25.90;60.90
43808;DHT22;29438;50.664;10.098;2023-07-28T07:21:41;26.20;59.50
43808;DHT22;29438;50.664;10.098;2023-07-28T07:24:07;25.70;61.50
43808;DHT22;29438;50.664;10.098;2023-07-28T07:26:35;25.90;61.60
43808;DHT22;29438;50.664;10.098;2023-07-28T07:29:00;27.20;58.50
43808;DHT22;29438;50.664;10.098;2023-07-28T07:31:26;29.20;53.10
43808;DHT22;29438;50.664;10.098;2023-07-28T07:33:51;29.80;50.80
43808;DHT22;29438;50.664;10.098;2023-07-28T07:36:18;28.70;53.10
43808;DHT22;29438;50.664;10.098;2023-07-28T07:38:45;28.60;53.20
43808;DHT22;29438;50.664;10.098;2023-07-28T07:41:14;28.90;53.20
43808;DHT22;29438;50.664;10.098;2023-07-28T07:43:47;27.20;55.80
43808;DHT22;29438;50.664;10.098;2023-07-28T07:46:13;26.20;59.30
43808;DHT22;29438;50.664;10.098;2023-07-28T07:48:39;26.70;57.50
43808;DHT22;29438;50.664;10.098;2023-07-28T07:51:04;27.30;55.90
43808;DHT22;29438;50.664;10.098;2023-07-28T07:53:30;27.70;55.10
43808;DHT22;29438;50.664;10.098;2023-07-28T07:55:55;27.90;55.60
43808;DHT22;29438;50.664;10.098;2023-07-28T07:58:21;29.70;52.30
43808;DHT22;29438;50.664;10.098;2023-07-28T08:00:46;29.30;50.00
43808;DHT22;29438;50.664;10.098;2023-07-28T08:03:12;28.90;51.70
43808;DHT22;29438;50.664;10.098;2023-07-28T08:05:37;29.70;49.30
43808;DHT22;29438;50.664;10.098;2023-07-28T08:08:03;29.90;49.80
43808;DHT22;29438;50.664;10.098;2023-07-28T08:10:30;30.60;49.00
43808;DHT22;29438;50.664;10.098;2023-07-28T08:12:56;29.30;50.70
43808;DHT22;29438;50.664;10.098;2023-07-28T08:15:22;28.30;54.00
43808;DHT22;29438;50.664;10.098;2023-07-28T08:17:48;27.20;55.30
43808;DHT22;29438;50.664;10.098;2023-07-28T08:20:13;26.90;55.30
43808;DHT22;29438;50.664;10.098;2023-07-28T08:22:39;26.50;58.00
43808;DHT22;29438;50.664;10.098;2023-07-28T08:25:05;26.40;58.70
43808;DHT22;29438;50.664;10.098;2023-07-28T08:27:31;26.00;59.20
43808;DHT22;29438;50.664;10.098;2023-07-28T08:29:56;25.80;59.80
43808;DHT22;29438;50.664;10.098;2023-07-28T08:32:22;26.20;59.00
43808;DHT22;29438;50.664;10.098;2023-07-28T08:34:48;27.10;56.90
43808;DHT22;29438;50.664;10.098;2023-07-28T08:37:13;27.50;57.40
43808;DHT22;29438;50.664;10.098;2023-07-28T08:39:39;27.90;55.30
43808;DHT22;29438;50.664;10.098;2023-07-28T08:42:05;27.90;54.10
43808;DHT22;29438;50.664;10.098;2023-07-28T08:44:32;27.50;55.50
43808;DHT22;29438;50.664;10.098;2023-07-28T08:47:02;26.10;59.80
43808;DHT22;29438;50.664;10.098;2023-07-28T08:49:32;25.90;61.50
43808;DHT22;29438;50.664;10.098;2023-07-28T08:52:00;25.80;61.30
43808;DHT22;29438;50.664;10.098;2023-07-28T08:54:26;26.20;59.90
43808;DHT22;29438;50.664;10.098;2023-07-28T08:56:51;25.50;62.30
43808;DHT22;29438;50.664;10.098;2023-07-28T08:59:22;25.50;61.30
43808;DHT22;29438;50.664;10.098;2023-07-28T09:01:50;25.50;61.30
43808;DHT22;29438;50.664;10.098;2023-07-28T09:04:16;25.20;63.20
43808;DHT22;29438;50.664;10.098;2023-07-28T09:06:45;26.90;59.90
43808;DHT22;29438;50.664;10.098;2023-07-28T09:09:11;27.30;58.50
43808;DHT22;29438;50.664;10.098;2023-07-28T09:11:46;26.10;61.70
43808;DHT22;29438;50.664;10.098;2023-07-28T09:14:14;25.20;63.30
43808;DHT22;29438;50.664;10.098;2023-07-28T09:16:41;24.70;65.90
43808;DHT22;29438;50.664;10.098;2023-07-28T09:19:08;24.60;67.20
43808;DHT22;29438;50.664;10.098;2023-07-28T09:21:34;24.50;68.80
43808;DHT22;29438;50.664;10.098;2023-07-28T09:24:00;24.40;69.30
43808;DHT22;29438;50.664;10.098;2023-07-28T09:26:42;24.70;67.10
43808;DHT22;29438;50.664;10.098;2023-07-28T09:29:15;24.50;67.80
43808;DHT22;29438;50.664;10.098;2023-07-28T09:31:45;24.20;69.10
43808;DHT22;29438;50.664;10.098;2023-07-28T09:34:12;23.90;71.50
43808;DHT22;29438;50.664;10.098;2023-07-28T09:36:39;23.80;72.00
43808;DHT22;29438;50.664;10.098;2023-07-28T09:39:06;24.30;69.00
43808;DHT22;29438;50.664;10.098;2023-07-28T09:41:35;23.90;70.90
43808;DHT22;29438;50.664;10.098;2023-07-28T09:44:01;23.70;73.00
43808;DHT22;29438;50.664;10.098;2023-07-28T09:46:28;23.90;72.50
43808;DHT22;29438;50.664;10.098;2023-07-28T09:48:57;23.00;74.20
43808;DHT22;29438;50.664;10.098;2023-07-28T09:51:30;22.70;75.50
43808;DHT22;29438;50.664;10.098;2023-07-28T09:53:59;22.30;76.80
43808;DHT22;29438;50.664;10.098;2023-07-28T09:56:29;21.90;77.40
43808;DHT22;29438;50.664;10.098;2023-07-28T09:58:56;22.10;77.80
43808;DHT22;29438;50.664;10.098;2023-07-28T10:01:23;22.20;76.50
43808;DHT22;29438;50.664;10.098;2023-07-28T10:03:49;22.20;76.90
43808;DHT22;29438;50.664;10.098;2023-07-28T10:06:16;22.80;76.80
43808;DHT22;29438;50.664;10.098;2023-07-28T10:08:45;23.30;75.20
43808;DHT22;29438;50.664;10.098;2023-07-28T10:11:15;23.60;72.80
43808;DHT22;29438;50.664;10.098;2023-07-28T10:13:42;23.50;72.10
43808;DHT22;29438;50.664;10.098;2023-07-28T10:16:09;24.00;74.80
43808;DHT22;29438;50.664;10.098;2023-07-28T10:18:35;23.90;71.70
43808;DHT22;29438;50.664;10.098;2023-07-28T10:21:09;23.40;74.50
43808;DHT22;29438;50.664;10.098;2023-07-28T10:23:39;23.70;73.60
43808;DHT22;29438;50.664;10.098;2023-07-28T10:26:05;23.80;73.10
43808;DHT22;29438;50.664;10.098;2023-07-28T10:30:58;25.40;69.40
43808;DHT22;29438;50.664;10.098;2023-07-28T10:33:34;25.50;68.50
43808;DHT22;29438;50.664;10.098;2023-07-28T10:38:43;24.90;69.30
43808;DHT22;29438;50.664;10.098;2023-07-28T10:41:16;25.20;69.50
43808;DHT22;29438;50.664;10.098;2023-07-28T10:43:43;24.90;68.40
43808;DHT22;29438;50.664;10.098;2023-07-28T10:46:11;24.90;68.00
43808;DHT22;29438;50.664;10.098;2023-07-28T10:48:47;25.20;68.60
43808;DHT22;29438;50.664;10.098;2023-07-28T10:51:24;25.00;65.70
43808;DHT22;29438;50.664;10.098;2023-07-28T10:53:51;24.60;68.40
43808;DHT22;29438;50.664;10.098;2023-07-28T10:56:17;23.90;69.40
43808;DHT22;29438;50.664;10.098;2023-07-28T10:58:44;23.80;70.20
43808;DHT22;29438;50.664;10.098;2023-07-28T11:01:09;22.70;73.60
43808;DHT22;29438;50.664;10.098;2023-07-28T11:03:36;22.50;77.20
43808;DHT22;29438;50.664;10.098;2023-07-28T11:06:03;22.70;77.70
43808;DHT22;29438;50.664;10.098;2023-07-28T11:08:29;23.20;75.60
43808;DHT22;29438;50.664;10.098;2023-07-28T11:10:54;23.90;72.10
43808;DHT22;29438;50.664;10.098;2023-07-28T11:13:20;24.60;70.80
43808;DHT22;29438;50.664;10.098;2023-07-28T11:15:47;25.00;68.80
43808;DHT22;29438;50.664;10.098;2023-07-28T11:18:15;25.00;69.90
43808;DHT22;29438;50.664;10.098;2023-07-28T11:20:41;24.70;69.00
43808;DHT22;29438;50.664;10.098;2023-07-28T11:23:07;25.20;68.70
43808;DHT22;29438;50.664;10.098;2023-07-28T11:25:34;25.00;67.60
43808;DHT22;29438;50.664;10.098;2023-07-28T11:28:02;24.70;69.30
43808;DHT22;29438;50.664;10.098;2023-07-28T11:30:31;25.60;66.70
43808;DHT22;29438;50.664;10.098;2023-07-28T11:32:57;26.20;64.70
43808;DHT22;29438;50.664;10.098;2023-07-28T11:35:23;25.40;66.10
43808;DHT22;29438;50.664;10.098;2023-07-28T11:37:50;24.40;67.60
43808;DHT22;29438;50.664;10.098;2023-07-28T11:40:20;23.70;70.40
43808;DHT22;29438;50.664;10.098;2023-07-28T11:42:48;23.30;72.80
43808;DHT22;29438;50.664;10.098;2023-07-28T11:45:16;24.10;71.70
43808;DHT22;29438;50.664;10.098;2023-07-28T11:48:02;24.40;67.90
43808;DHT22;29438;50.664;10.098;2023-07-28T11:50:29;24.00;71.20
43808;DHT22;29438;50.664;10.098;2023-07-28T11:52:57;24.00;69.80
43808;DHT22;29438;50.664;10.098;2023-07-28T11:55:23;23.50;70.50
43808;DHT22;29438;50.664;10.098;2023-07-28T11:57:50;22.90;72.30
43808;DHT22;29438;50.664;10.098;2023-07-28T12:00:16;22.70;73.10
43808;DHT22;29438;50.664;10.098;2023-07-28T12:02:42;22.60;74.10
43808;DHT22;29438;50.664;10.098;2023-07-28T12:05:15;22.40;74.90
43808;DHT22;29438;50.664;10.098;2023-07-28T12:07:41;22.90;74.70
43808;DHT22;29438;50.664;10.098;2023-07-28T12:10:12;23.20;71.20
43808;DHT22;29438;50.664;10.098;2023-07-28T12:12:46;23.00;72.80
43808;DHT22;29438;50.664;10.098;2023-07-28T12:15:18;23.50;72.40
43808;DHT22;29438;50.664;10.098;2023-07-28T12:18:07;23.90;69.40
43808;DHT22;29438;50.664;10.098;2023-07-28T12:20:39;23.50;70.60
43808;DHT22;29438;50.664;10.098;2023-07-28T12:23:06;23.80;71.20
43808;DHT22;29438;50.664;10.098;2023-07-28T12:25:32;24.40;69.80
43808;DHT22;29438;50.664;10.098;2023-07-28T12:27:58;24.60;68.20
43808;DHT22;29438;50.664;10.098;2023-07-28T12:30:24;24.70;69.40
43808;DHT22;29438;50.664;10.098;2023-07-28T12:32:49;25.20;70.20
43808;DHT22;29438;50.664;10.098;2023-07-28T12:35:15;25.60;66.80
43808;DHT22;29438;50.664;10.098;2023-07-28T12:37:41;25.40;64.00
43808;DHT22;29438;50.664;10.098;2023-07-28T12:40:07;24.90;66.20
43808;DHT22;29438;50.664;10.098;2023-07-28T12:42:33;24.80;67.90
43808;DHT22;29438;50.664;10.098;2023-07-28T12:44:59;24.50;67.50
43808;DHT22;29438;50.664;10.098;2023-07-28T12:47:25;23.60;68.90
43808;DHT22;29438;50.664;10.098;2023-07-28T12:49:50;23.20;71.00
43808;DHT22;29438;50.664;10.098;2023-07-28T12:52:16;23.20;72.70
43808;DHT22;29438;50.664;10.098;2023-07-28T12:54:41;23.60;74.00
43808;DHT22;29438;50.664;10.098;2023-07-28T12:57:08;23.90;70.90
43808;DHT22;29438;50.664;10.098;2023-07-28T12:59:36;24.00;71.00
43808;DHT22;29438;50.664;10.098;2023-07-28T13:02:01;23.70;72.00
43808;DHT22;29438;50.664;10.098;2023-07-28T13:04:27;23.50;70.70
43808;DHT22;29438;50.664;10.098;2023-07-28T13:06:52;23.20;73.40
43808;DHT22;29438;50.664;10.098;2023-07-28T13:09:18;22.80;75.10
43808;DHT22;29438;50.664;10.098;2023-07-28T13:11:43;22.60;76.10
43808;DHT22;29438;50.664;10.098;2023-07-28T13:14:09;22.90;74.30
43808;DHT22;29438;50.664;10.098;2023-07-28T13:16:34;23.00;74.30
43808;DHT22;29438;50.664;10.098;2023-07-28T13:19:01;22.90;77.40
43808;DHT22;29438;50.664;10.098;2023-07-28T13:21:27;22.30;77.90
43808;DHT22;29438;50.664;10.098;2023-07-28T13:23:52;21.60;79.70
43808;DHT22;29438;50.664;10.098;2023-07-28T13:26:18;21.10;83.10
43808;DHT22;29438;50.664;10.098;2023-07-28T13:28:43;20.90;83.80
43808;DHT22;29438;50.664;10.098;2023-07-28T13:31:13;20.80;85.50
43808;DHT22;29438;50.664;10.098;2023-07-28T13:33:38;20.70;85.40
43808;DHT22;29438;50.664;10.098;2023-07-28T13:36:04;20.60;86.30
43808;DHT22;29438;50.664;10.098;2023-07-28T13:38:33;20.20;86.90
43808;DHT22;29438;50.664;10.098;2023-07-28T13:40:58;20.20;86.50
43808;DHT22;29438;50.664;10.098;2023-07-28T13:43:24;20.70;86.50
43808;DHT22;29438;50.664;10.098;2023-07-28T13:45:49;21.20;84.20
43808;DHT22;29438;50.664;10.098;2023-07-28T13:48:15;22.20;83.30
43808;DHT22;29438;50.664;10.098;2023-07-28T13:50:41;23.20;82.40
43808;DHT22;29438;50.664;10.098;2023-07-28T13:53:06;23.70;79.70
43808;DHT22;29438;50.664;10.098;2023-07-28T13:55:32;24.00;76.90
43808;DHT22;29438;50.664;10.098;2023-07-28T13:57:57;24.10;78.60
43808;DHT22;29438;50.664;10.098;2023-07-28T14:00:23;23.90;76.90
43808;DHT22;29438;50.664;10.098;2023-07-28T14:02:48;23.50;77.50
43808;DHT22;29438;50.664;10.098;2023-07-28T14:05:14;23.30;78.90
43808;DHT22;29438;50.664;10.098;2023-07-28T14:07:39;23.10;79.10
43808;DHT22;29438;50.664;10.098;2023-07-28T14:10:05;23.20;78.60
43808;DHT22;29438;50.664;10.098;2023-07-28T14:12:31;23.10;78.10
43808;DHT22;29438;50.664;10.098;2023-07-28T14:14:56;22.90;77.80
43808;DHT22;29438;50.664;10.098;2023-07-28T14:17:22;22.80;80.20
43808;DHT22;29438;50.664;10.098;2023-07-28T14:19:47;22.70;78.10
43808;DHT22;29438;50.664;10.098;2023-07-28T14:22:13;22.60;79.00
43808;DHT22;29438;50.664;10.098;2023-07-28T14:24:39;22.70;78.50
43808;DHT22;29438;50.664;10.098;2023-07-28T14:27:05;22.90;79.40
43808;DHT22;29438;50.664;10.098;2023-07-28T14:29:31;22.80;80.40
43808;DHT22;29438;50.664;10.098;2023-07-28T14:31:56;22.80;81.00
43808;DHT22;29438;50.664;10.098;2023-07-28T14:34:22;22.70;79.50
43808;DHT22;29438;50.664;10.098;2023-07-28T14:36:48;22.70;78.90
43808;DHT22;29438;50.664;10.098;2023-07-28T14:39:13;22.50;80.70
43808;DHT22;29438;50.664;10.098;2023-07-28T14:41:39;22.40;81.60
43808;DHT22;29438;50.664;10.098;2023-07-28T14:44:04;22.10;82.00
43808;DHT22;29438;50.664;10.098;2023-07-28T14:46:30;21.60;81.50
43808;DHT22;29438;50.664;10.098;2023-07-28T14:48:55;21.40;83.20
43808;DHT22;29438;50.664;10.098;2023-07-28T14:51:21;21.30;84.90
43808;DHT22;29438;50.664;10.098;2023-07-28T14:53:47;21.30;84.70
43808;DHT22;29438;50.664;10.098;2023-07-28T14:56:13;21.60;84.70
43808;DHT22;29438;50.664;10.098;2023-07-28T14:58:39;21.80;83.80
43808;DHT22;29438;50.664;10.098;2023-07-28T15:01:10;22.10;82.60
43808;DHT22;29438;50.664;10.098;2023-07-28T15:03:36;22.40;82.50
43808;DHT22;29438;50.664;10.098;2023-07-28T15:06:02;22.50;80.20
43808;DHT22;29438;50.664;10.098;2023-07-28T15:08:28;22.50;80.20
43808;DHT22;29438;50.664;10.098;2023-07-28T15:10:55;22.30;80.60
43808;DHT22;29438;50.664;10.098;2023-07-28T15:13:21;22.20;81.60
43808;DHT22;29438;50.664;10.098;2023-07-28T15:15:47;21.80;83.30
43808;DHT22;29438;50.664;10.098;2023-07-28T15:18:13;21.80;82.60
43808;DHT22;29438;50.664;10.098;2023-07-28T15:20:40;21.70;81.40